createdAt,value
2022-09-12T00:01:13.063Z,12.08
2022-09-12T00:06:23.458Z,12.09
2022-09-12T00:11:31.256Z,12.09
2022-09-12T00:16:40.195Z,12.09
2022-09-12T00:21:48.505Z,12.09
2022-09-12T00:26:56.576Z,12.09
2022-09-12T00:32:05.094Z,12.09
2022-09-12T00:37:13.215Z,12.09
2022-09-12T00:42:21.304Z,12.09
2022-09-12T00:47:31.422Z,12.09
2022-09-12T00:52:43.040Z,12.09
2022-09-12T00:57:55.895Z,12.09
2022-09-12T01:03:06.888Z,12.10
2022-09-12T01:08:14.911Z,12.10
2022-09-12T01:13:22.909Z,12.11
2022-09-12T01:18:42.563Z,12.11
2022-09-12T01:24:32.767Z,12.11
2022-09-12T01:30:07.037Z,12.12
2022-09-12T01:35:23.278Z,12.12
2022-09-12T01:40:37.007Z,12.12
2022-09-12T01:45:55.605Z,12.12
2022-09-12T01:51:12.255Z,12.13
2022-09-12T01:56:23.812Z,12.13
2022-09-12T02:01:34.623Z,12.12
2022-09-12T02:06:47.653Z,12.12
2022-09-12T02:11:59.669Z,12.12
2022-09-12T02:17:12.470Z,12.12
2022-09-12T02:22:24.414Z,12.11
2022-09-12T02:27:39.822Z,12.11
2022-09-12T02:33:00.081Z,12.11
2022-09-12T02:38:12.109Z,12.09
2022-09-12T02:43:20.193Z,12.08
2022-09-12T02:48:33.381Z,12.08
2022-09-12T02:53:41.202Z,12.06
2022-09-12T02:58:50.316Z,12.05
2022-09-12T03:04:13.021Z,12.04
2022-09-12T03:09:29.950Z,12.04
2022-09-12T03:15:01.987Z,12.03
2022-09-12T03:20:18.530Z,12.02
2022-09-12T03:25:30.235Z,12.02
2022-09-12T03:30:43.705Z,12.01
2022-09-12T03:35:52.486Z,12.01
2022-09-12T03:41:00.468Z,12.00
2022-09-12T03:46:08.624Z,11.99
2022-09-12T03:51:16.508Z,11.99
2022-09-12T03:56:24.776Z,11.97
2022-09-12T04:01:33.682Z,11.97
2022-09-12T04:06:42.406Z,11.96
2022-09-12T04:11:50.541Z,11.94
2022-09-12T04:16:58.525Z,11.93
2022-09-12T04:22:06.751Z,11.92
2022-09-12T04:27:14.758Z,11.90
2022-09-12T04:32:22.758Z,11.90
2022-09-12T04:37:31.103Z,11.88
2022-09-12T04:42:39.256Z,11.87
2022-09-12T04:47:47.962Z,11.87
2022-09-12T04:52:57.147Z,11.86
2022-09-12T04:58:05.533Z,11.86
2022-09-12T05:03:13.703Z,11.85
2022-09-12T05:08:22.063Z,11.85
2022-09-12T05:13:30.253Z,11.85
2022-09-12T05:18:39.791Z,11.86
2022-09-12T05:23:49.395Z,11.85
2022-09-12T05:28:58.269Z,11.86
2022-09-12T05:34:07.510Z,11.86
2022-09-12T05:39:14.983Z,11.88
2022-09-12T05:44:23.127Z,11.88
2022-09-12T05:49:54.131Z,11.89
2022-09-12T05:55:02.394Z,11.87
2022-09-12T06:00:13.405Z,11.89
2022-09-12T06:05:21.493Z,11.93
2022-09-12T06:10:30.060Z,11.96
2022-09-12T06:15:38.176Z,11.98
2022-09-12T06:20:46.269Z,12.01
2022-09-12T06:25:54.431Z,12.03
2022-09-12T06:31:08.096Z,12.04
2022-09-12T06:36:18.425Z,12.04
2022-09-12T06:41:27.696Z,12.06
2022-09-12T06:46:35.946Z,12.08
2022-09-12T06:51:44.936Z,12.10
2022-09-12T06:56:52.957Z,12.11
2022-09-12T07:02:02.249Z,12.13
2022-09-12T07:07:10.631Z,12.15
2022-09-12T07:12:18.919Z,12.16
2022-09-12T07:17:27.395Z,12.19
2022-09-12T07:22:35.835Z,12.21
2022-09-12T07:27:46.207Z,12.22
2022-09-12T07:32:58.241Z,12.25
2022-09-12T07:38:06.505Z,12.27
2022-09-12T07:43:14.998Z,12.29
2022-09-12T07:48:23.364Z,12.33
2022-09-12T07:53:37.292Z,12.37
2022-09-12T07:58:46.270Z,12.40
2022-09-12T08:03:59.178Z,12.45
2022-09-12T08:09:08.157Z,12.51
2022-09-12T08:14:18.055Z,12.57
2022-09-12T08:19:26.100Z,12.62
2022-09-12T08:24:34.080Z,12.70
2022-09-12T08:29:42.017Z,12.76
2022-09-12T08:34:50.060Z,12.81
2022-09-12T08:39:58.348Z,12.87
2022-09-12T08:45:24.628Z,12.92
2022-09-12T08:50:32.901Z,12.98
2022-09-12T08:55:42.947Z,13.03
2022-09-12T09:00:59.834Z,13.08
2022-09-12T09:06:23.595Z,13.14
2022-09-12T09:11:55.871Z,13.19
2022-09-12T09:17:02.433Z,13.25
2022-09-12T09:22:16.366Z,13.28
2022-09-12T09:27:40.872Z,13.31
2022-09-12T09:32:53.227Z,13.36
2022-09-12T09:38:14.645Z,13.39
2022-09-12T09:43:27.907Z,13.42
2022-09-12T09:48:37.421Z,13.45
2022-09-12T09:53:52.000Z,13.48
2022-09-12T09:59:10.473Z,13.52
2022-09-12T10:04:24.210Z,13.57
2022-09-12T10:09:34.346Z,13.62
2022-09-12T10:14:43.943Z,13.69
2022-09-12T10:20:10.911Z,13.76
2022-09-12T10:25:27.550Z,13.84
2022-09-12T10:30:35.630Z,13.91
2022-09-12T10:35:51.592Z,13.96
2022-09-12T10:41:05.643Z,14.00
2022-09-12T10:46:33.419Z,14.04
2022-09-12T10:51:41.689Z,14.07
2022-09-12T10:57:05.229Z,14.10
2022-09-12T11:02:26.613Z,14.12
2022-09-12T11:07:55.449Z,14.15
2022-09-12T11:13:17.118Z,14.16
2022-09-12T11:18:52.517Z,14.18
2022-09-12T11:24:31.059Z,14.20
2022-09-12T11:29:51.554Z,14.24
2022-09-12T11:35:16.581Z,14.28
2022-09-12T11:40:34.134Z,14.31
2022-09-12T11:45:46.140Z,14.37
2022-09-12T11:50:53.044Z,14.42
2022-09-12T11:56:07.826Z,14.48
2022-09-12T12:01:22.820Z,14.53
2022-09-12T12:06:33.329Z,14.59
2022-09-12T12:11:45.514Z,14.63
2022-09-12T12:16:53.957Z,14.67
2022-09-12T12:22:10.876Z,14.71
2022-09-12T12:27:47.026Z,14.74
2022-09-12T12:33:00.904Z,14.77
2022-09-12T12:38:29.010Z,14.81
2022-09-12T12:43:37.020Z,14.85
2022-09-12T12:49:12.710Z,14.87
2022-09-12T12:54:56.455Z,14.91
2022-09-12T13:00:09.193Z,14.94
2022-09-12T13:05:24.889Z,14.97
2022-09-12T13:10:34.349Z,15.01
2022-09-12T13:15:55.909Z,15.06
2022-09-12T13:21:12.586Z,15.12
2022-09-12T13:26:26.933Z,15.19
2022-09-12T13:31:35.271Z,15.27
2022-09-12T13:36:58.731Z,15.35
2022-09-12T13:42:32.584Z,15.46
2022-09-12T13:47:43.292Z,15.57
2022-09-12T13:52:54.867Z,15.65
2022-09-12T13:58:05.238Z,15.71
2022-09-12T14:03:47.651Z,15.76
2022-09-12T14:08:55.417Z,15.80
2022-09-12T14:14:08.306Z,15.85
2022-09-12T14:19:17.757Z,15.91
2022-09-12T14:24:26.249Z,15.97
2022-09-12T14:29:35.049Z,16.01
2022-09-12T14:34:43.038Z,16.03
2022-09-12T14:39:51.283Z,16.03
2022-09-12T14:45:03.485Z,16.03
2022-09-12T14:50:21.350Z,16.01
2022-09-12T14:55:34.031Z,16.00
2022-09-12T15:00:58.133Z,15.98
2022-09-12T15:06:08.948Z,15.96
2022-09-12T15:11:20.193Z,15.95
2022-09-12T15:16:28.408Z,15.95
2022-09-12T15:21:36.755Z,15.95
2022-09-12T15:26:44.748Z,15.92
2022-09-12T15:31:54.158Z,15.90
2022-09-12T15:37:01.176Z,15.86
2022-09-12T15:42:10.395Z,15.83
2022-09-12T15:47:18.387Z,15.79
2022-09-12T15:52:26.142Z,15.77
2022-09-12T15:57:34.189Z,15.73
2022-09-12T16:02:42.472Z,15.70
2022-09-12T16:07:52.436Z,15.68
2022-09-12T16:13:01.131Z,15.65
2022-09-12T16:18:09.238Z,15.62
2022-09-12T16:23:17.554Z,15.59
2022-09-12T16:28:26.661Z,15.56
2022-09-12T16:33:35.731Z,15.52
2022-09-12T16:38:48.110Z,15.48
2022-09-12T16:43:56.919Z,15.43
2022-09-12T16:49:06.332Z,15.38
2022-09-12T16:54:14.860Z,15.31
2022-09-12T16:59:23.106Z,15.26
2022-09-12T17:04:31.118Z,15.19
2022-09-12T17:09:39.596Z,15.11
2022-09-12T17:14:48.095Z,15.03
2022-09-12T17:19:55.432Z,14.94
2022-09-12T17:25:03.652Z,14.83
2022-09-12T17:30:13.562Z,14.70
2022-09-12T17:35:22.125Z,14.56
2022-09-12T17:40:55.653Z,14.40
2022-09-12T17:46:01.080Z,14.21
2022-09-12T17:51:14.630Z,14.03
2022-09-12T17:56:22.587Z,13.84
2022-09-12T18:01:49.838Z,13.65
2022-09-12T18:07:00.678Z,13.43
2022-09-12T18:12:09.705Z,13.23
2022-09-12T18:17:17.153Z,13.03
2022-09-12T18:22:25.421Z,12.83
2022-09-12T18:27:33.354Z,12.62
2022-09-12T18:32:41.919Z,12.44
2022-09-12T18:37:50.209Z,12.25
2022-09-12T18:42:58.105Z,12.07
2022-09-12T18:48:06.864Z,11.88
2022-09-12T18:53:15.154Z,11.71
2022-09-12T18:58:23.292Z,11.53
2022-09-12T19:03:31.757Z,11.36
2022-09-12T19:08:39.970Z,11.19
2022-09-12T19:13:50.688Z,11.03
2022-09-12T19:18:59.922Z,10.88
2022-09-12T19:24:11.923Z,10.73
2022-09-12T19:29:20.015Z,10.58
2022-09-12T19:34:28.771Z,10.44
2022-09-12T19:39:36.740Z,10.31
2022-09-12T19:44:45.199Z,10.19
2022-09-12T19:49:54.026Z,10.06
2022-09-12T19:55:02.040Z,9.95
2022-09-12T20:00:10.960Z,9.84
2022-09-12T20:05:20.105Z,9.73
2022-09-12T20:10:28.445Z,9.63
2022-09-12T20:15:36.603Z,9.53
2022-09-12T20:20:44.537Z,9.43
2022-09-12T20:25:52.603Z,9.34
2022-09-12T20:31:04.244Z,9.24
2022-09-12T20:36:15.040Z,9.17
2022-09-12T20:41:23.652Z,9.36
2022-09-12T20:46:32.361Z,9.32
2022-09-12T20:51:40.964Z,9.16
2022-09-12T20:56:49.017Z,9.02
2022-09-12T21:01:57.397Z,8.90
2022-09-12T21:07:05.593Z,8.80
2022-09-12T21:12:13.678Z,8.70
2022-09-12T21:17:20.917Z,8.60
2022-09-12T21:22:28.917Z,8.50
2022-09-12T21:27:37.022Z,8.40
2022-09-12T21:32:45.306Z,8.31
2022-09-12T21:37:54.870Z,8.22
2022-09-12T21:43:02.860Z,8.25
2022-09-12T21:48:11.413Z,8.52
2022-09-12T21:53:19.397Z,8.69
2022-09-12T21:58:28.715Z,8.80
2022-09-12T22:03:36.891Z,8.90
2022-09-12T22:08:44.990Z,8.98
2022-09-12T22:13:53.190Z,9.03
2022-09-12T22:19:01.629Z,9.06
2022-09-12T22:24:29.713Z,9.07
2022-09-12T22:29:38.859Z,9.07
2022-09-12T22:34:46.978Z,9.05
2022-09-12T22:39:55.620Z,9.03
2022-09-12T22:45:03.913Z,9.03
2022-09-12T22:50:12.663Z,8.99
2022-09-12T22:55:21.307Z,8.96
2022-09-12T23:00:30.116Z,8.92
2022-09-12T23:05:39.898Z,8.88
2022-09-12T23:10:48.019Z,8.84
2022-09-12T23:16:03.177Z,8.81
2022-09-12T23:21:12.473Z,8.76
2022-09-12T23:26:22.198Z,8.72
2022-09-12T23:31:31.347Z,8.68
2022-09-12T23:36:39.566Z,8.63
2022-09-12T23:41:47.509Z,8.58
2022-09-12T23:46:55.601Z,8.52
2022-09-12T23:52:04.234Z,8.47
2022-09-12T23:57:12.308Z,8.42
